sensor_id;sensor_type;location;lat;lon;timestamp;P1;durP1;ratioP1;P2;durP2;ratioP2
4724;SDS011;2376;53.544;10.226;2023-07-28T00:00:19;4.50;;;4.30;;
4724;SDS011;2376;53.544;10.226;2023-07-28T00:02:46;4.87;;;4.67;;
4724;SDS011;2376;53.544;10.226;2023-07-28T00:05:13;4.93;;;4.63;;
4724;SDS011;2376;53.544;10.226;2023-07-28T00:07:40;4.00;;;3.80;;
4724;SDS011;2376;53.544;10.226;2023-07-28T00:10:06;4.10;;;3.90;;
4724;SDS011;2376;53.544;10.226;2023-07-28T00:12:34;4.37;;;4.07;;
4724;SDS011;2376;53.544;10.226;2023-07-28T00:15:00;4.03;;;3.77;;
4724;SDS011;2376;53.544;10.226;2023-07-28T00:17:28;4.40;;;4.10;;
4724;SDS011;2376;53.544;10.226;2023-07-28T00:19:55;3.53;;;3.33;;
4724;SDS011;2376;53.544;10.226;2023-07-28T00:22:22;4.07;;;3.87;;
4724;SDS011;2376;53.544;10.226;2023-07-28T00:24:48;3.30;;;3.10;;
4724;SDS011;2376;53.544;10.226;2023-07-28T00:27:15;3.60;;;3.40;;
4724;SDS011;2376;53.544;10.226;2023-07-28T00:29:42;3.77;;;3.47;;
4724;SDS011;2376;53.544;10.226;2023-07-28T00:32:08;3.00;;;2.90;;
4724;SDS011;2376;53.544;10.226;2023-07-28T00:34:36;3.50;;;3.30;;
4724;SDS011;2376;53.544;10.226;2023-07-28T00:37:03;3.10;;;2.90;;
4724;SDS011;2376;53.544;10.226;2023-07-28T00:39:30;2.63;;;2.53;;
4724;SDS011;2376;53.544;10.226;2023-07-28T00:41:56;3.07;;;2.97;;
4724;SDS011;2376;53.544;10.226;2023-07-28T00:44:23;3.37;;;3.17;;
4724;SDS011;2376;53.544;10.226;2023-07-28T00:46:50;3.40;;;3.20;;
4724;SDS011;2376;53.544;10.226;2023-07-28T00:49:17;3.83;;;3.63;;
4724;SDS011;2376;53.544;10.226;2023-07-28T00:51:45;2.77;;;2.67;;
4724;SDS011;2376;53.544;10.226;2023-07-28T00:54:12;2.33;;;2.23;;
4724;SDS011;2376;53.544;10.226;2023-07-28T00:56:38;2.40;;;2.30;;
4724;SDS011;2376;53.544;10.226;2023-07-28T00:59:05;2.90;;;2.80;;
4724;SDS011;2376;53.544;10.226;2023-07-28T01:01:31;2.70;;;2.53;;
4724;SDS011;2376;53.544;10.226;2023-07-28T01:03:58;3.03;;;2.93;;
4724;SDS011;2376;53.544;10.226;2023-07-28T01:06:27;2.50;;;2.40;;
4724;SDS011;2376;53.544;10.226;2023-07-28T01:09:03;2.70;;;2.60;;
4724;SDS011;2376;53.544;10.226;2023-07-28T01:11:32;2.00;;;1.90;;
4724;SDS011;2376;53.544;10.226;2023-07-28T01:13:59;2.10;;;2.00;;
4724;SDS011;2376;53.544;10.226;2023-07-28T01:16:25;2.30;;;2.20;;
4724;SDS011;2376;53.544;10.226;2023-07-28T01:18:52;2.17;;;2.07;;
4724;SDS011;2376;53.544;10.226;2023-07-28T01:21:20;1.90;;;1.80;;
4724;SDS011;2376;53.544;10.226;2023-07-28T01:23:52;2.13;;;2.03;;
4724;SDS011;2376;53.544;10.226;2023-07-28T01:26:27;2.10;;;2.00;;
4724;SDS011;2376;53.544;10.226;2023-07-28T01:28:56;2.10;;;2.00;;
4724;SDS011;2376;53.544;10.226;2023-07-28T01:31:25;2.10;;;2.00;;
4724;SDS011;2376;53.544;10.226;2023-07-28T01:33:51;2.33;;;2.23;;
4724;SDS011;2376;53.544;10.226;2023-07-28T01:36:18;2.43;;;2.00;;
4724;SDS011;2376;53.544;10.226;2023-07-28T01:38:45;2.20;;;2.10;;
4724;SDS011;2376;53.544;10.226;2023-07-28T01:41:11;2.60;;;2.50;;
4724;SDS011;2376;53.544;10.226;2023-07-28T01:43:39;3.13;;;2.97;;
4724;SDS011;2376;53.544;10.226;2023-07-28T01:46:06;2.27;;;2.17;;
4724;SDS011;2376;53.544;10.226;2023-07-28T01:48:33;2.60;;;2.50;;
4724;SDS011;2376;53.544;10.226;2023-07-28T01:51:00;2.60;;;2.30;;
4724;SDS011;2376;53.544;10.226;2023-07-28T01:53:26;2.77;;;2.67;;
4724;SDS011;2376;53.544;10.226;2023-07-28T01:55:53;2.67;;;2.47;;
4724;SDS011;2376;53.544;10.226;2023-07-28T01:58:20;1.80;;;1.70;;
4724;SDS011;2376;53.544;10.226;2023-07-28T02:00:48;2.33;;;2.23;;
4724;SDS011;2376;53.544;10.226;2023-07-28T02:03:14;2.80;;;2.70;;
4724;SDS011;2376;53.544;10.226;2023-07-28T02:05:41;2.73;;;2.63;;
4724;SDS011;2376;53.544;10.226;2023-07-28T02:08:09;2.80;;;2.70;;
4724;SDS011;2376;53.544;10.226;2023-07-28T02:10:36;2.90;;;2.80;;
4724;SDS011;2376;53.544;10.226;2023-07-28T02:13:02;3.00;;;2.90;;
4724;SDS011;2376;53.544;10.226;2023-07-28T02:15:29;2.43;;;2.30;;
4724;SDS011;2376;53.544;10.226;2023-07-28T02:17:57;2.50;;;2.40;;
4724;SDS011;2376;53.544;10.226;2023-07-28T02:20:24;2.60;;;2.50;;
4724;SDS011;2376;53.544;10.226;2023-07-28T02:22:50;2.43;;;2.33;;
4724;SDS011;2376;53.544;10.226;2023-07-28T02:25:17;2.60;;;2.50;;
4724;SDS011;2376;53.544;10.226;2023-07-28T02:27:43;4.20;;;3.93;;
4724;SDS011;2376;53.544;10.226;2023-07-28T02:30:10;4.00;;;3.80;;
4724;SDS011;2376;53.544;10.226;2023-07-28T02:32:37;4.10;;;3.80;;
4724;SDS011;2376;53.544;10.226;2023-07-28T02:35:05;3.63;;;3.43;;
4724;SDS011;2376;53.544;10.226;2023-07-28T02:37:32;4.10;;;3.90;;
4724;SDS011;2376;53.544;10.226;2023-07-28T02:39:59;4.23;;;3.93;;
4724;SDS011;2376;53.544;10.226;2023-07-28T02:42:26;4.60;;;4.37;;
4724;SDS011;2376;53.544;10.226;2023-07-28T02:44:52;4.50;;;4.20;;
4724;SDS011;2376;53.544;10.226;2023-07-28T02:47:19;4.10;;;3.90;;
4724;SDS011;2376;53.544;10.226;2023-07-28T02:49:45;3.97;;;3.77;;
4724;SDS011;2376;53.544;10.226;2023-07-28T02:52:13;4.57;;;4.27;;
4724;SDS011;2376;53.544;10.226;2023-07-28T02:54:40;4.20;;;3.90;;
4724;SDS011;2376;53.544;10.226;2023-07-28T02:57:07;3.47;;;3.27;;
4724;SDS011;2376;53.544;10.226;2023-07-28T02:59:33;4.20;;;3.90;;
4724;SDS011;2376;53.544;10.226;2023-07-28T03:02:00;3.73;;;3.53;;
4724;SDS011;2376;53.544;10.226;2023-07-28T03:04:27;4.17;;;3.87;;
4724;SDS011;2376;53.544;10.226;2023-07-28T03:06:53;4.60;;;3.80;;
4724;SDS011;2376;53.544;10.226;2023-07-28T03:09:22;3.50;;;3.30;;
4724;SDS011;2376;53.544;10.226;2023-07-28T03:11:49;4.27;;;3.97;;
4724;SDS011;2376;53.544;10.226;2023-07-28T03:14:15;3.50;;;3.40;;
4724;SDS011;2376;53.544;10.226;2023-07-28T03:16:42;3.77;;;3.57;;
4724;SDS011;2376;53.544;10.226;2023-07-28T03:19:09;3.73;;;3.53;;
4724;SDS011;2376;53.544;10.226;2023-07-28T03:21:35;3.73;;;3.53;;
4724;SDS011;2376;53.544;10.226;2023-07-28T03:24:02;3.50;;;3.40;;
4724;SDS011;2376;53.544;10.226;2023-07-28T03:26:31;3.80;;;3.60;;
4724;SDS011;2376;53.544;10.226;2023-07-28T03:28:57;3.10;;;2.90;;
4724;SDS011;2376;53.544;10.226;2023-07-28T03:31:24;3.00;;;2.90;;
4724;SDS011;2376;53.544;10.226;2023-07-28T03:33:50;3.40;;;3.20;;
4724;SDS011;2376;53.544;10.226;2023-07-28T03:36:17;2.70;;;2.60;;
4724;SDS011;2376;53.544;10.226;2023-07-28T03:38:44;2.63;;;2.53;;
4724;SDS011;2376;53.544;10.226;2023-07-28T03:41:11;3.10;;;3.00;;
4724;SDS011;2376;53.544;10.226;2023-07-28T03:43:40;2.87;;;2.77;;
4724;SDS011;2376;53.544;10.226;2023-07-28T03:46:07;2.80;;;2.70;;
4724;SDS011;2376;53.544;10.226;2023-07-28T03:48:33;2.63;;;2.53;;
4724;SDS011;2376;53.544;10.226;2023-07-28T03:51:00;2.57;;;2.47;;
4724;SDS011;2376;53.544;10.226;2023-07-28T03:53:27;2.67;;;2.57;;
4724;SDS011;2376;53.544;10.226;2023-07-28T03:55:53;2.50;;;2.30;;
4724;SDS011;2376;53.544;10.226;2023-07-28T03:58:23;2.97;;;2.87;;
4724;SDS011;2376;53.544;10.226;2023-07-28T04:00:51;2.57;;;2.47;;
4724;SDS011;2376;53.544;10.226;2023-07-28T04:03:18;2.27;;;2.17;;
4724;SDS011;2376;53.544;10.226;2023-07-28T04:05:45;2.97;;;2.87;;
4724;SDS011;2376;53.544;10.226;2023-07-28T04:08:12;2.70;;;2.60;;
4724;SDS011;2376;53.544;10.226;2023-07-28T04:10:38;2.43;;;2.33;;
4724;SDS011;2376;53.544;10.226;2023-07-28T04:13:05;2.67;;;2.57;;
4724;SDS011;2376;53.544;10.226;2023-07-28T04:15:31;2.60;;;2.50;;
4724;SDS011;2376;53.544;10.226;2023-07-28T04:17:59;2.70;;;2.60;;
4724;SDS011;2376;53.544;10.226;2023-07-28T04:20:26;2.70;;;2.60;;
4724;SDS011;2376;53.544;10.226;2023-07-28T04:22:53;3.60;;;3.40;;
4724;SDS011;2376;53.544;10.226;2023-07-28T04:25:19;3.33;;;3.13;;
4724;SDS011;2376;53.544;10.226;2023-07-28T04:27:46;3.37;;;3.17;;
4724;SDS011;2376;53.544;10.226;2023-07-28T04:30:12;3.73;;;3.53;;
4724;SDS011;2376;53.544;10.226;2023-07-28T04:32:39;3.80;;;3.50;;
4724;SDS011;2376;53.544;10.226;2023-07-28T04:35:07;3.70;;;3.50;;
4724;SDS011;2376;53.544;10.226;2023-07-28T04:37:34;4.87;;;3.30;;
4724;SDS011;2376;53.544;10.226;2023-07-28T04:40:00;3.97;;;3.77;;
4724;SDS011;2376;53.544;10.226;2023-07-28T04:42:28;3.47;;;3.20;;
4724;SDS011;2376;53.544;10.226;2023-07-28T04:44:55;4.00;;;3.80;;
4724;SDS011;2376;53.544;10.226;2023-07-28T04:47:21;3.80;;;3.50;;
4724;SDS011;2376;53.544;10.226;2023-07-28T04:49:48;3.17;;;2.97;;
4724;SDS011;2376;53.544;10.226;2023-07-28T04:52:16;2.90;;;2.80;;
4724;SDS011;2376;53.544;10.226;2023-07-28T04:54:43;3.47;;;3.27;;
4724;SDS011;2376;53.544;10.226;2023-07-28T04:57:09;2.73;;;2.63;;
4724;SDS011;2376;53.544;10.226;2023-07-28T04:59:36;3.90;;;3.70;;
4724;SDS011;2376;53.544;10.226;2023-07-28T05:02:03;3.90;;;3.70;;
4724;SDS011;2376;53.544;10.226;2023-07-28T05:04:29;3.07;;;2.97;;
4724;SDS011;2376;53.544;10.226;2023-07-28T05:06:56;3.23;;;3.03;;
4724;SDS011;2376;53.544;10.226;2023-07-28T05:09:24;4.30;;;3.93;;
4724;SDS011;2376;53.544;10.226;2023-07-28T05:11:53;3.77;;;3.57;;
4724;SDS011;2376;53.544;10.226;2023-07-28T05:14:19;3.63;;;3.43;;
4724;SDS011;2376;53.544;10.226;2023-07-28T05:16:46;4.70;;;4.30;;
4724;SDS011;2376;53.544;10.226;2023-07-28T05:19:13;3.07;;;2.97;;
4724;SDS011;2376;53.544;10.226;2023-07-28T05:21:39;3.33;;;3.23;;
4724;SDS011;2376;53.544;10.226;2023-07-28T05:24:06;3.63;;;3.43;;
4724;SDS011;2376;53.544;10.226;2023-07-28T05:26:34;2.73;;;2.63;;
4724;SDS011;2376;53.544;10.226;2023-07-28T05:29:01;5.83;;;2.80;;
4724;SDS011;2376;53.544;10.226;2023-07-28T05:31:27;7.30;;;2.87;;
4724;SDS011;2376;53.544;10.226;2023-07-28T05:33:54;3.20;;;3.03;;
4724;SDS011;2376;53.544;10.226;2023-07-28T05:36:20;2.93;;;2.73;;
4724;SDS011;2376;53.544;10.226;2023-07-28T05:38:47;2.50;;;2.40;;
4724;SDS011;2376;53.544;10.226;2023-07-28T05:41:14;3.07;;;2.87;;
4724;SDS011;2376;53.544;10.226;2023-07-28T05:43:42;2.80;;;2.70;;
4724;SDS011;2376;53.544;10.226;2023-07-28T05:46:09;2.83;;;2.63;;
4724;SDS011;2376;53.544;10.226;2023-07-28T05:48:35;3.30;;;3.20;;
4724;SDS011;2376;53.544;10.226;2023-07-28T05:51:02;2.77;;;2.67;;
4724;SDS011;2376;53.544;10.226;2023-07-28T05:53:29;4.60;;;2.80;;
4724;SDS011;2376;53.544;10.226;2023-07-28T05:55:55;2.57;;;2.47;;
4724;SDS011;2376;53.544;10.226;2023-07-28T05:58:22;3.43;;;2.60;;
4724;SDS011;2376;53.544;10.226;2023-07-28T06:00:50;3.00;;;2.80;;
4724;SDS011;2376;53.544;10.226;2023-07-28T06:03:17;2.67;;;2.57;;
4724;SDS011;2376;53.544;10.226;2023-07-28T06:05:43;2.20;;;2.10;;
4724;SDS011;2376;53.544;10.226;2023-07-28T06:08:10;3.30;;;3.10;;
4724;SDS011;2376;53.544;10.226;2023-07-28T06:10:37;2.70;;;2.60;;
4724;SDS011;2376;53.544;10.226;2023-07-28T06:13:04;3.10;;;2.90;;
4724;SDS011;2376;53.544;10.226;2023-07-28T06:15:31;2.93;;;2.73;;
4724;SDS011;2376;53.544;10.226;2023-07-28T06:18:01;3.37;;;3.17;;
4724;SDS011;2376;53.544;10.226;2023-07-28T06:20:28;2.73;;;2.50;;
4724;SDS011;2376;53.544;10.226;2023-07-28T06:22:55;2.93;;;2.73;;
4724;SDS011;2376;53.544;10.226;2023-07-28T06:25:21;2.60;;;2.50;;
4724;SDS011;2376;53.544;10.226;2023-07-28T06:27:48;2.23;;;2.13;;
4724;SDS011;2376;53.544;10.226;2023-07-28T06:30:15;2.40;;;2.30;;
4724;SDS011;2376;53.544;10.226;2023-07-28T06:32:41;2.10;;;2.00;;
4724;SDS011;2376;53.544;10.226;2023-07-28T06:35:09;2.33;;;2.23;;
4724;SDS011;2376;53.544;10.226;2023-07-28T06:37:37;2.63;;;2.53;;
4724;SDS011;2376;53.544;10.226;2023-07-28T06:40:04;2.30;;;2.20;;
4724;SDS011;2376;53.544;10.226;2023-07-28T06:42:33;2.20;;;2.10;;
4724;SDS011;2376;53.544;10.226;2023-07-28T06:45:00;2.60;;;2.40;;
4724;SDS011;2376;53.544;10.226;2023-07-28T06:47:27;2.10;;;2.00;;
4724;SDS011;2376;53.544;10.226;2023-07-28T06:49:54;2.20;;;2.10;;
4724;SDS011;2376;53.544;10.226;2023-07-28T06:52:22;2.60;;;2.50;;
4724;SDS011;2376;53.544;10.226;2023-07-28T06:54:49;2.80;;;2.60;;
4724;SDS011;2376;53.544;10.226;2023-07-28T06:57:15;2.00;;;1.90;;
4724;SDS011;2376;53.544;10.226;2023-07-28T06:59:42;2.27;;;2.17;;
4724;SDS011;2376;53.544;10.226;2023-07-28T07:02:09;2.83;;;2.73;;
4724;SDS011;2376;53.544;10.226;2023-07-28T07:04:36;4.23;;;2.20;;
4724;SDS011;2376;53.544;10.226;2023-07-28T07:07:03;2.40;;;2.30;;
4724;SDS011;2376;53.544;10.226;2023-07-28T07:09:31;2.50;;;2.40;;
4724;SDS011;2376;53.544;10.226;2023-07-28T07:11:58;2.50;;;2.40;;
4724;SDS011;2376;53.544;10.226;2023-07-28T07:14:24;3.50;;;1.90;;
4724;SDS011;2376;53.544;10.226;2023-07-28T07:16:51;2.40;;;2.30;;
4724;SDS011;2376;53.544;10.226;2023-07-28T07:19:18;2.77;;;2.67;;
4724;SDS011;2376;53.544;10.226;2023-07-28T07:21:44;2.30;;;2.20;;
4724;SDS011;2376;53.544;10.226;2023-07-28T07:24:12;2.20;;;2.10;;
4724;SDS011;2376;53.544;10.226;2023-07-28T07:26:40;2.63;;;2.30;;
4724;SDS011;2376;53.544;10.226;2023-07-28T07:29:07;3.73;;;3.20;;
4724;SDS011;2376;53.544;10.226;2023-07-28T07:31:34;2.03;;;1.93;;
4724;SDS011;2376;53.544;10.226;2023-07-28T07:34:01;2.43;;;2.20;;
4724;SDS011;2376;53.544;10.226;2023-07-28T07:36:29;2.67;;;2.57;;
4724;SDS011;2376;53.544;10.226;2023-07-28T07:38:56;2.73;;;2.63;;
4724;SDS011;2376;53.544;10.226;2023-07-28T07:41:23;2.27;;;2.17;;
4724;SDS011;2376;53.544;10.226;2023-07-28T07:43:52;2.23;;;2.13;;
4724;SDS011;2376;53.544;10.226;2023-07-28T07:46:19;2.13;;;2.03;;
4724;SDS011;2376;53.544;10.226;2023-07-28T07:48:46;2.37;;;2.17;;
4724;SDS011;2376;53.544;10.226;2023-07-28T07:51:13;2.57;;;2.37;;
4724;SDS011;2376;53.544;10.226;2023-07-28T07:53:40;1.97;;;1.87;;
4724;SDS011;2376;53.544;10.226;2023-07-28T07:56:07;2.50;;;2.40;;
4724;SDS011;2376;53.544;10.226;2023-07-28T07:58:34;2.17;;;2.00;;
4724;SDS011;2376;53.544;10.226;2023-07-28T08:01:02;2.80;;;2.20;;
4724;SDS011;2376;53.544;10.226;2023-07-28T08:03:29;2.30;;;2.20;;
4724;SDS011;2376;53.544;10.226;2023-07-28T08:05:56;2.13;;;2.03;;
4724;SDS011;2376;53.544;10.226;2023-07-28T08:08:23;2.13;;;2.03;;
4724;SDS011;2376;53.544;10.226;2023-07-28T08:10:52;2.00;;;1.90;;
4724;SDS011;2376;53.544;10.226;2023-07-28T08:13:18;1.80;;;1.70;;
4724;SDS011;2376;53.544;10.226;2023-07-28T08:15:45;1.73;;;1.63;;
4724;SDS011;2376;53.544;10.226;2023-07-28T08:18:14;1.80;;;1.70;;
4724;SDS011;2376;53.544;10.226;2023-07-28T08:20:40;2.10;;;2.00;;
4724;SDS011;2376;53.544;10.226;2023-07-28T08:23:07;2.43;;;2.33;;
4724;SDS011;2376;53.544;10.226;2023-07-28T08:25:34;3.00;;;2.80;;
4724;SDS011;2376;53.544;10.226;2023-07-28T08:28:02;3.10;;;2.57;;
4724;SDS011;2376;53.544;10.226;2023-07-28T08:30:29;2.40;;;2.30;;
4724;SDS011;2376;53.544;10.226;2023-07-28T08:32:56;2.43;;;2.33;;
4724;SDS011;2376;53.544;10.226;2023-07-28T08:35:25;3.00;;;2.80;;
4724;SDS011;2376;53.544;10.226;2023-07-28T08:37:51;2.13;;;2.03;;
4724;SDS011;2376;53.544;10.226;2023-07-28T08:40:18;3.17;;;2.97;;
4724;SDS011;2376;53.544;10.226;2023-07-28T08:42:45;2.43;;;2.33;;
4724;SDS011;2376;53.544;10.226;2023-07-28T08:45:12;3.00;;;2.90;;
4724;SDS011;2376;53.544;10.226;2023-07-28T08:47:39;2.17;;;2.07;;
4724;SDS011;2376;53.544;10.226;2023-07-28T08:50:06;2.40;;;2.30;;
4724;SDS011;2376;53.544;10.226;2023-07-28T08:52:34;2.13;;;2.03;;
4724;SDS011;2376;53.544;10.226;2023-07-28T08:55:01;2.70;;;2.50;;
4724;SDS011;2376;53.544;10.226;2023-07-28T08:57:28;1.90;;;1.80;;
4724;SDS011;2376;53.544;10.226;2023-07-28T08:59:55;2.27;;;2.03;;
4724;SDS011;2376;53.544;10.226;2023-07-28T09:02:22;2.13;;;2.03;;
4724;SDS011;2376;53.544;10.226;2023-07-28T09:04:49;2.30;;;2.20;;
4724;SDS011;2376;53.544;10.226;2023-07-28T09:07:15;2.40;;;2.30;;
4724;SDS011;2376;53.544;10.226;2023-07-28T09:09:44;2.03;;;1.93;;
4724;SDS011;2376;53.544;10.226;2023-07-28T09:12:11;2.50;;;2.40;;
4724;SDS011;2376;53.544;10.226;2023-07-28T09:14:38;2.47;;;2.37;;
4724;SDS011;2376;53.544;10.226;2023-07-28T09:17:08;2.57;;;2.47;;
4724;SDS011;2376;53.544;10.226;2023-07-28T09:19:48;2.30;;;2.20;;
4724;SDS011;2376;53.544;10.226;2023-07-28T09:22:16;2.43;;;2.23;;
4724;SDS011;2376;53.544;10.226;2023-07-28T09:24:45;1.97;;;1.87;;
4724;SDS011;2376;53.544;10.226;2023-07-28T09:27:19;2.00;;;1.90;;
4724;SDS011;2376;53.544;10.226;2023-07-28T09:29:47;4.23;;;1.97;;
4724;SDS011;2376;53.544;10.226;2023-07-28T09:32:15;1.80;;;1.70;;
4724;SDS011;2376;53.544;10.226;2023-07-28T09:34:43;1.90;;;1.80;;
4724;SDS011;2376;53.544;10.226;2023-07-28T09:37:09;2.17;;;1.97;;
4724;SDS011;2376;53.544;10.226;2023-07-28T09:39:37;3.67;;;1.80;;
4724;SDS011;2376;53.544;10.226;2023-07-28T09:42:07;1.70;;;1.60;;
4724;SDS011;2376;53.544;10.226;2023-07-28T09:44:35;1.60;;;1.50;;
4724;SDS011;2376;53.544;10.226;2023-07-28T09:47:02;2.30;;;1.93;;
4724;SDS011;2376;53.544;10.226;2023-07-28T09:49:32;2.10;;;2.00;;
4724;SDS011;2376;53.544;10.226;2023-07-28T09:52:04;1.87;;;1.77;;
4724;SDS011;2376;53.544;10.226;2023-07-28T09:54:33;1.87;;;1.77;;
4724;SDS011;2376;53.544;10.226;2023-07-28T09:57:04;1.90;;;1.80;;
4724;SDS011;2376;53.544;10.226;2023-07-28T09:59:38;1.63;;;1.53;;
4724;SDS011;2376;53.544;10.226;2023-07-28T10:02:06;1.90;;;1.80;;
4724;SDS011;2376;53.544;10.226;2023-07-28T10:04:34;1.70;;;1.60;;
4724;SDS011;2376;53.544;10.226;2023-07-28T10:07:01;2.20;;;2.10;;
4724;SDS011;2376;53.544;10.226;2023-07-28T10:09:30;2.40;;;2.20;;
4724;SDS011;2376;53.544;10.226;2023-07-28T10:11:58;3.43;;;1.70;;
4724;SDS011;2376;53.544;10.226;2023-07-28T10:14:27;1.97;;;1.87;;
4724;SDS011;2376;53.544;10.226;2023-07-28T10:16:56;3.53;;;1.70;;
4724;SDS011;2376;53.544;10.226;2023-07-28T10:19:24;2.40;;;2.20;;
4724;SDS011;2376;53.544;10.226;2023-07-28T10:21:51;2.40;;;2.20;;
4724;SDS011;2376;53.544;10.226;2023-07-28T10:27:25;1.80;;;1.70;;
4724;SDS011;2376;53.544;10.226;2023-07-28T10:30:00;2.03;;;1.73;;
4724;SDS011;2376;53.544;10.226;2023-07-28T10:32:30;1.73;;;1.63;;
4724;SDS011;2376;53.544;10.226;2023-07-28T10:35:06;1.40;;;1.30;;
4724;SDS011;2376;53.544;10.226;2023-07-28T10:37:34;1.50;;;1.40;;
4724;SDS011;2376;53.544;10.226;2023-07-28T10:42:56;1.40;;;1.40;;
4724;SDS011;2376;53.544;10.226;2023-07-28T10:45:25;1.63;;;1.53;;
4724;SDS011;2376;53.544;10.226;2023-07-28T10:47:54;1.77;;;1.67;;
4724;SDS011;2376;53.544;10.226;2023-07-28T10:50:25;2.33;;;1.67;;
4724;SDS011;2376;53.544;10.226;2023-07-28T10:52:53;1.53;;;1.43;;
4724;SDS011;2376;53.544;10.226;2023-07-28T10:55:20;1.70;;;1.60;;
4724;SDS011;2376;53.544;10.226;2023-07-28T10:57:49;2.20;;;2.10;;
4724;SDS011;2376;53.544;10.226;2023-07-28T11:00:18;1.80;;;1.70;;
4724;SDS011;2376;53.544;10.226;2023-07-28T11:02:48;1.60;;;1.50;;
4724;SDS011;2376;53.544;10.226;2023-07-28T11:05:19;1.90;;;1.80;;
4724;SDS011;2376;53.544;10.226;2023-07-28T11:07:47;2.10;;;2.00;;
4724;SDS011;2376;53.544;10.226;2023-07-28T11:10:14;2.00;;;1.90;;
4724;SDS011;2376;53.544;10.226;2023-07-28T11:12:41;2.20;;;2.00;;
4724;SDS011;2376;53.544;10.226;2023-07-28T11:15:09;2.27;;;2.07;;
4724;SDS011;2376;53.544;10.226;2023-07-28T11:17:37;2.07;;;1.70;;
4724;SDS011;2376;53.544;10.226;2023-07-28T11:20:06;1.97;;;1.87;;
4724;SDS011;2376;53.544;10.226;2023-07-28T11:22:41;2.60;;;1.90;;
4724;SDS011;2376;53.544;10.226;2023-07-28T11:25:08;1.83;;;1.73;;
4724;SDS011;2376;53.544;10.226;2023-07-28T11:27:35;2.27;;;1.90;;
4724;SDS011;2376;53.544;10.226;2023-07-28T11:30:03;1.93;;;1.83;;
4724;SDS011;2376;53.544;10.226;2023-07-28T11:32:30;1.80;;;1.70;;
4724;SDS011;2376;53.544;10.226;2023-07-28T11:35:02;1.87;;;1.77;;
4724;SDS011;2376;53.544;10.226;2023-07-28T11:37:31;2.73;;;2.13;;
4724;SDS011;2376;53.544;10.226;2023-07-28T11:39:59;2.70;;;2.07;;
4724;SDS011;2376;53.544;10.226;2023-07-28T11:42:27;2.87;;;2.10;;
4724;SDS011;2376;53.544;10.226;2023-07-28T11:44:55;1.87;;;1.77;;
4724;SDS011;2376;53.544;10.226;2023-07-28T11:47:22;1.97;;;1.87;;
4724;SDS011;2376;53.544;10.226;2023-07-28T11:49:49;1.90;;;1.80;;
4724;SDS011;2376;53.544;10.226;2023-07-28T11:52:16;1.30;;;1.30;;
4724;SDS011;2376;53.544;10.226;2023-07-28T11:54:44;2.03;;;1.87;;
4724;SDS011;2376;53.544;10.226;2023-07-28T11:57:11;1.70;;;1.60;;
4724;SDS011;2376;53.544;10.226;2023-07-28T11:59:39;1.90;;;1.80;;
4724;SDS011;2376;53.544;10.226;2023-07-28T12:02:07;1.70;;;1.60;;
4724;SDS011;2376;53.544;10.226;2023-07-28T12:04:35;2.10;;;1.97;;
4724;SDS011;2376;53.544;10.226;2023-07-28T12:07:03;2.50;;;1.60;;
4724;SDS011;2376;53.544;10.226;2023-07-28T12:09:32;2.93;;;1.83;;
4724;SDS011;2376;53.544;10.226;2023-07-28T12:12:00;1.63;;;1.60;;
4724;SDS011;2376;53.544;10.226;2023-07-28T12:14:30;2.13;;;2.03;;
4724;SDS011;2376;53.544;10.226;2023-07-28T12:16:58;1.73;;;1.50;;
4724;SDS011;2376;53.544;10.226;2023-07-28T12:19:25;1.93;;;1.83;;
4724;SDS011;2376;53.544;10.226;2023-07-28T12:21:52;2.27;;;2.17;;
4724;SDS011;2376;53.544;10.226;2023-07-28T12:24:19;2.00;;;1.90;;
4724;SDS011;2376;53.544;10.226;2023-07-28T12:26:46;2.10;;;2.00;;
4724;SDS011;2376;53.544;10.226;2023-07-28T12:29:14;1.97;;;1.87;;
4724;SDS011;2376;53.544;10.226;2023-07-28T12:31:41;1.80;;;1.70;;
4724;SDS011;2376;53.544;10.226;2023-07-28T12:34:08;1.70;;;1.60;;
4724;SDS011;2376;53.544;10.226;2023-07-28T12:36:34;1.90;;;1.80;;
4724;SDS011;2376;53.544;10.226;2023-07-28T12:39:01;2.33;;;2.23;;
4724;SDS011;2376;53.544;10.226;2023-07-28T12:41:28;1.77;;;1.67;;
4724;SDS011;2376;53.544;10.226;2023-07-28T12:43:55;2.10;;;2.00;;
4724;SDS011;2376;53.544;10.226;2023-07-28T12:46:23;1.83;;;1.73;;
4724;SDS011;2376;53.544;10.226;2023-07-28T12:48:50;2.33;;;1.90;;
4724;SDS011;2376;53.544;10.226;2023-07-28T12:51:16;2.13;;;2.00;;
4724;SDS011;2376;53.544;10.226;2023-07-28T12:53:43;1.77;;;1.67;;
4724;SDS011;2376;53.544;10.226;2023-07-28T12:56:09;1.97;;;1.87;;
4724;SDS011;2376;53.544;10.226;2023-07-28T12:58:36;1.93;;;1.83;;
4724;SDS011;2376;53.544;10.226;2023-07-28T13:01:03;1.90;;;1.80;;
4724;SDS011;2376;53.544;10.226;2023-07-28T13:03:31;1.63;;;1.53;;
4724;SDS011;2376;53.544;10.226;2023-07-28T13:05:58;1.70;;;1.60;;
4724;SDS011;2376;53.544;10.226;2023-07-28T13:08:25;1.73;;;1.63;;
4724;SDS011;2376;53.544;10.226;2023-07-28T13:10:51;10.67;;;1.90;;
4724;SDS011;2376;53.544;10.226;2023-07-28T13:13:18;1.60;;;1.50;;
4724;SDS011;2376;53.544;10.226;2023-07-28T13:15:45;1.67;;;1.57;;
4724;SDS011;2376;53.544;10.226;2023-07-28T13:18:12;2.07;;;1.80;;
4724;SDS011;2376;53.544;10.226;2023-07-28T13:20:40;1.90;;;1.80;;
4724;SDS011;2376;53.544;10.226;2023-07-28T13:23:06;1.80;;;1.70;;
4724;SDS011;2376;53.544;10.226;2023-07-28T13:25:33;1.77;;;1.67;;
4724;SDS011;2376;53.544;10.226;2023-07-28T13:28:00;1.80;;;1.70;;
4724;SDS011;2376;53.544;10.226;2023-07-28T13:30:27;1.40;;;1.30;;
4724;SDS011;2376;53.544;10.226;2023-07-28T13:32:54;1.23;;;1.20;;
4724;SDS011;2376;53.544;10.226;2023-07-28T13:35:20;1.47;;;1.37;;
4724;SDS011;2376;53.544;10.226;2023-07-28T13:37:51;1.80;;;1.70;;
4724;SDS011;2376;53.544;10.226;2023-07-28T13:40:17;1.60;;;1.50;;
4724;SDS011;2376;53.544;10.226;2023-07-28T13:42:45;1.57;;;1.47;;
4724;SDS011;2376;53.544;10.226;2023-07-28T13:45:12;1.67;;;1.57;;
4724;SDS011;2376;53.544;10.226;2023-07-28T13:47:39;1.70;;;1.60;;
4724;SDS011;2376;53.544;10.226;2023-07-28T13:50:06;1.50;;;1.40;;
4724;SDS011;2376;53.544;10.226;2023-07-28T13:52:33;1.40;;;1.30;;
4724;SDS011;2376;53.544;10.226;2023-07-28T13:55:01;1.40;;;1.30;;
4724;SDS011;2376;53.544;10.226;2023-07-28T13:57:31;1.83;;;1.30;;
4724;SDS011;2376;53.544;10.226;2023-07-28T13:59:57;1.60;;;1.50;;
4724;SDS011;2376;53.544;10.226;2023-07-28T14:02:24;1.63;;;1.53;;
4724;SDS011;2376;53.544;10.226;2023-07-28T14:04:51;1.43;;;1.33;;
4724;SDS011;2376;53.544;10.226;2023-07-28T14:07:18;1.40;;;1.40;;
4724;SDS011;2376;53.544;10.226;2023-07-28T14:09:44;1.73;;;1.50;;
4724;SDS011;2376;53.544;10.226;2023-07-28T14:12:13;1.13;;;1.13;;
4724;SDS011;2376;53.544;10.226;2023-07-28T14:14:39;1.50;;;1.40;;
4724;SDS011;2376;53.544;10.226;2023-07-28T14:17:06;2.27;;;1.33;;
4724;SDS011;2376;53.544;10.226;2023-07-28T14:19:33;1.90;;;1.30;;
4724;SDS011;2376;53.544;10.226;2023-07-28T14:21:59;1.83;;;1.43;;
4724;SDS011;2376;53.544;10.226;2023-07-28T14:24:26;2.30;;;1.40;;
4724;SDS011;2376;53.544;10.226;2023-07-28T14:26:53;1.30;;;1.20;;
4724;SDS011;2376;53.544;10.226;2023-07-28T14:29:21;1.30;;;1.20;;
4724;SDS011;2376;53.544;10.226;2023-07-28T14:31:48;1.53;;;1.43;;
4724;SDS011;2376;53.544;10.226;2023-07-28T14:34:15;2.30;;;1.63;;
4724;SDS011;2376;53.544;10.226;2023-07-28T14:36:42;1.30;;;1.30;;
4724;SDS011;2376;53.544;10.226;2023-07-28T14:39:09;3.07;;;1.50;;
4724;SDS011;2376;53.544;10.226;2023-07-28T14:41:36;1.40;;;1.30;;
4724;SDS011;2376;53.544;10.226;2023-07-28T14:44:03;1.63;;;1.53;;
4724;SDS011;2376;53.544;10.226;2023-07-28T14:46:31;1.10;;;1.10;;
4724;SDS011;2376;53.544;10.226;2023-07-28T14:48:58;1.43;;;1.17;;
4724;SDS011;2376;53.544;10.226;2023-07-28T14:51:24;8.57;;;1.37;;
4724;SDS011;2376;53.544;10.226;2023-07-28T14:53:51;1.50;;;1.40;;
4724;SDS011;2376;53.544;10.226;2023-07-28T14:56:20;1.67;;;1.57;;
4724;SDS011;2376;53.544;10.226;2023-07-28T14:58:49;1.60;;;1.50;;
4724;SDS011;2376;53.544;10.226;2023-07-28T15:01:18;1.30;;;1.30;;
4724;SDS011;2376;53.544;10.226;2023-07-28T15:03:46;1.50;;;1.40;;
4724;SDS011;2376;53.544;10.226;2023-07-28T15:06:13;1.40;;;1.30;;